»·PEaware :: N102EF KSBP-KWHP

N102EF :: KSBP-KWHP

FLIGHT INFORMATION

Flight Status: Arrived
Operator: Privately registered:
United States
More flights under this callsign
Pilot: Ron R. (25532)
Aircraft: BEECH AIRCRAFT DUKE
(BE60)
More flights by this aircraft type
Origin: KSBP San Luis Co Regl
United States
Destination: KWHP Whiteman
United States
More flights between these airports :: More routes between these airports
Route: RZS V186 FIM
File this flight plan on PilotEdge
Remarks:
Altitude:
(Current/Filed)
7,000ft
Speed:
(Current/Filed)
210kts
Departed: 01-Nov-19 07:47 AM
Arrived: 01-Nov-19 08:38 AM
Distance/Time
Traveled:
125nm/0:51
Distance/Time
To Go:
Arrived

Flight Plot

Page will automatically refresh every two minutes.


Map Options




Map Legend


Flown Route
Filed Route
Departure Airport
Arrival Airport
Navaid (VOR, NDB)
Fix

Horizontal Profiles

Position Reports

Time Latitude Longitude Heading Altitude Ground
Speed
01-Nov-19 07:20 35.238275 -120.639189 89 215ft 0kts
01-Nov-19 07:21 35.238275 -120.639189 89 215ft 0kts
01-Nov-19 07:22 35.238275 -120.639189 89 215ft 0kts
01-Nov-19 07:23 35.238275 -120.639188 89 215ft 0kts
01-Nov-19 07:24 35.238275 -120.639187 89 215ft 0kts
01-Nov-19 07:25 35.238275 -120.639184 89 215ft 0kts
01-Nov-19 07:26 35.238275 -120.639181 89 215ft 0kts
01-Nov-19 07:27 35.238275 -120.639178 89 215ft 0kts
01-Nov-19 07:28 35.238275 -120.639175 89 215ft 0kts
01-Nov-19 07:29 35.238275 -120.639173 89 215ft 0kts
01-Nov-19 07:30 35.238275 -120.639171 89 215ft 0kts
01-Nov-19 07:31 35.238275 -120.639169 89 215ft 0kts
01-Nov-19 07:32 35.238275 -120.639167 89 215ft 0kts
01-Nov-19 07:33 35.238275 -120.639165 89 215ft 0kts
01-Nov-19 07:34 35.238275 -120.639163 89 215ft 0kts
01-Nov-19 07:35 35.238275 -120.639161 89 215ft 0kts
01-Nov-19 07:36 35.238275 -120.639159 89 215ft 0kts
01-Nov-19 07:37 35.236696 -120.637954 124 215ft 11kts
01-Nov-19 07:38 35.234901 -120.634683 124 215ft 12kts
01-Nov-19 07:39 35.233164 -120.632272 307 215ft 2kts
01-Nov-19 07:40 35.233172 -120.632285 307 215ft 0kts
01-Nov-19 07:41 35.233173 -120.632287 307 215ft 0kts
01-Nov-19 07:42 35.233176 -120.632292 307 215ft 0kts
01-Nov-19 07:43 35.233178 -120.632296 307 215ft 0kts
01-Nov-19 07:44 35.233277 -120.632470 290 215ft 4kts
01-Nov-19 07:45 35.233221 -120.632655 218 215ft 0kts
01-Nov-19 07:46 35.234522 -120.636048 304 215ft 61kts
01-Nov-19 07:47 35.254088 -120.670291 304 1193ft 127kts
01-Nov-19 07:48 35.276255 -120.710448 304 2753ft 159kts
01-Nov-19 07:49 35.300673 -120.756143 304 4360ft 153kts
01-Nov-19 07:50 35.295588 -120.799329 195 6350ft 153kts
01-Nov-19 07:51 35.249447 -120.793519 135 7019ft 203kts
01-Nov-19 07:52 35.210686 -120.738311 131 6999ft 214kts
01-Nov-19 07:53 35.172231 -120.685276 130 6999ft 206kts
01-Nov-19 07:54 35.134295 -120.632282 130 7001ft 206kts
01-Nov-19 07:55 35.096446 -120.579698 130 7002ft 206kts
01-Nov-19 07:56 35.058739 -120.527199 130 7004ft 205kts
01-Nov-19 07:57 35.021011 -120.474459 130 7006ft 207kts
01-Nov-19 07:58 34.983057 -120.421745 130 7009ft 207kts
01-Nov-19 07:59 34.944906 -120.368897 130 7010ft 206kts
01-Nov-19 08:00 34.906930 -120.316356 130 7010ft 206kts
01-Nov-19 08:01 34.868969 -120.263878 130 7015ft 206kts
01-Nov-19 08:02 34.831061 -120.211537 130 7018ft 206kts
01-Nov-19 08:03 34.793211 -120.159349 130 7021ft 205kts
01-Nov-19 08:04 34.755194 -120.107031 130 7024ft 205kts
01-Nov-19 08:05 34.717291 -120.054950 130 7025ft 206kts
01-Nov-19 08:06 34.679351 -120.002896 130 7026ft 206kts
01-Nov-19 08:07 34.641374 -119.950879 130 7025ft 205kts
01-Nov-19 08:08 34.603478 -119.899035 130 7020ft 205kts
01-Nov-19 08:09 34.565412 -119.847041 130 7013ft 205kts
01-Nov-19 08:10 34.527486 -119.795316 130 7006ft 205kts
01-Nov-19 08:11 34.492929 -119.740581 121 7005ft 204kts
01-Nov-19 08:12 34.461868 -119.682868 122 7006ft 204kts
01-Nov-19 08:13 34.430616 -119.625337 122 7008ft 204kts
01-Nov-19 08:14 34.399205 -119.567609 122 7007ft 204kts
01-Nov-19 08:15 34.367901 -119.510155 122 7009ft 204kts
01-Nov-19 08:16 34.336558 -119.452721 122 7009ft 204kts
01-Nov-19 08:17 34.317604 -119.390660 82 7017ft 203kts
01-Nov-19 08:18 34.323911 -119.322680 84 7016ft 203kts
01-Nov-19 08:19 34.329072 -119.254224 85 7015ft 204kts
01-Nov-19 08:21 34.334198 -119.185934 85 7012ft 204kts
01-Nov-19 08:22 34.339320 -119.117505 85 7008ft 204kts
01-Nov-19 08:23 34.344414 -119.048927 85 7008ft 204kts
01-Nov-19 08:24 34.349467 -118.980342 85 7012ft 204kts
01-Nov-19 08:25 34.354500 -118.911500 85 7020ft 204kts
01-Nov-19 08:26 34.349125 -118.843919 103 6798ft 202kts
01-Nov-19 08:27 34.322244 -118.789349 132 5805ft 186kts
01-Nov-19 08:28 34.286398 -118.745112 132 5011ft 184kts
01-Nov-19 08:29 34.251804 -118.702551 132 4976ft 171kts
01-Nov-19 08:30 34.219004 -118.661880 126 4966ft 167kts
01-Nov-19 08:31 34.211473 -118.606752 92 4002ft 167kts
01-Nov-19 08:32 34.208491 -118.551244 92 3079ft 160kts
01-Nov-19 08:33 34.205507 -118.501770 92 2961ft 141kts
01-Nov-19 08:34 34.205745 -118.455874 74 2897ft 120kts
01-Nov-19 08:35 34.223471 -118.423196 49 2081ft 110kts
01-Nov-19 08:36 34.243512 -118.398812 347 1442ft 93kts
01-Nov-19 08:37 34.261283 -118.415543 318 1006ft 41kts
01-Nov-19 08:38 34.263264 -118.417191 49 1006ft 0kts
01-Nov-19 08:39 34.263266 -118.417189 49 1006ft 0kts
01-Nov-19 08:39 34.263267 -118.417187 49 1006ft 0kts
01-Nov-19 08:41 34.263269 -118.417184 49 1006ft 0kts
01-Nov-19 08:42 34.262834 -118.416317 139 1006ft 7kts
01-Nov-19 08:42 34.260949 -118.414281 131 1006ft 18kts
01-Nov-19 08:44 34.260618 -118.412240 229 1006ft 0kts
01-Nov-19 08:44 34.260678 -118.412155 229 1006ft 0kts
01-Nov-19 08:45 34.260678 -118.412155 229 1006ft 0kts

Navigation Log

Ident Type
Flight plan parsing failed, navigation log unavailable